Time;durP1;ratioP1;P1;durP2;ratioP2;P2;SDS_P1;SDS_P2;PMS_P1;PMS_P2;Temp;Humidity;BMP_temperature;BMP_pressure;BME280_temperature;BME280_humidity;BME280_pressure;Samples;Min_cycle;Max_cycle;Signal;HPM_P1;HPM_P2
2022/02/23 00:00:09;;;;;;;23.90;4.97;;;;;;;;;;5008785;28;20264;-71
2022/02/23 00:13:42;;;;;;;19.63;4.30;;;;;;;;;;4984014;28;20605;-72
2022/02/23 00:16:10;;;;;;;18.80;4.47;;;;;;;;;;4989027;28;20277;-71
2022/02/23 00:18:38;;;;;;;19.27;4.27;;;;;;;;;;4979872;28;20703;-71
2022/02/23 00:21:04;;;;;;;19.27;4.20;;;;;;;;;;4995278;28;20359;-72
2022/02/23 00:23:32;;;;;;;20.73;4.10;;;;;;;;;;4992465;28;20221;-71
2022/02/23 00:25:58;;;;;;;17.13;3.97;;;;;;;;;;4982294;28;20241;-71
2022/02/23 00:28:25;;;;;;;21.23;4.57;;;;;;;;;;4961196;28;20225;-70
2022/02/23 00:30:51;;;;;;;16.50;4.67;;;;;;;;;;4992530;28;20726;-70
2022/02/23 00:33:16;;;;;;;19.53;4.27;;;;;;;;;;4992499;28;20221;-70
2022/02/23 00:35:42;;;;;;;21.30;4.70;;;;;;;;;;4960602;28;20300;-71
2022/02/23 00:38:07;;;;;;;17.27;3.83;;;;;;;;;;4991566;28;20225;-70
2022/02/23 00:40:35;;;;;;;18.07;4.20;;;;;;;;;;4992060;28;20229;-70
2022/02/23 00:43:31;;;;;;;22.50;4.63;;;;;;;;;;4992087;28;20228;-70
2022/02/23 00:45:57;;;;;;;18.23;4.57;;;;;;;;;;4991804;28;20867;-71
2022/02/23 00:48:25;;;;;;;21.43;4.57;;;;;;;;;;4990592;28;20229;-71
2022/02/23 00:50:51;;;;;;;21.73;4.50;;;;;;;;;;4991920;28;20221;-70
2022/02/23 00:53:21;;;;;;;19.50;4.23;;;;;;;;;;4973062;28;20697;-71
2022/02/23 00:55:51;;;;;;;22.10;4.60;;;;;;;;;;4991482;28;20272;-71
2022/02/23 00:58:17;;;;;;;19.30;3.87;;;;;;;;;;4991663;28;20774;-70
2022/02/23 01:00:47;;;;;;;22.53;4.73;;;;;;;;;;4975448;28;20311;-70
2022/02/23 01:03:12;;;;;;;20.20;4.67;;;;;;;;;;4975420;28;20710;-71
2022/02/23 01:05:40;;;;;;;18.30;3.73;;;;;;;;;;4987935;28;20318;-71
2022/02/23 01:08:07;;;;;;;22.20;4.30;;;;;;;;;;4981622;28;20244;-71
2022/02/23 01:10:33;;;;;;;19.40;4.57;;;;;;;;;;4991278;28;20229;-71
2022/02/23 01:20:44;;;;;;;22.57;4.53;;;;;;;;;;4954762;28;20225;-72
2022/02/23 01:23:10;;;;;;;16.23;4.47;;;;;;;;;;4976275;28;20227;-73
2022/02/23 01:25:37;;;;;;;20.80;4.70;;;;;;;;;;4991815;28;20221;-72
2022/02/23 01:28:08;;;;;;;16.57;4.03;;;;;;;;;;4959500;28;20233;-72
2022/02/23 01:30:36;;;;;;;22.50;4.90;;;;;;;;;;4990336;28;20236;-72
2022/02/23 01:33:05;;;;;;;22.83;4.67;;;;;;;;;;4990581;28;20217;-73
2022/02/23 01:35:31;;;;;;;19.00;4.90;;;;;;;;;;4985543;28;20245;-72
2022/02/23 01:37:58;;;;;;;18.57;5.23;;;;;;;;;;4974995;28;20304;-73
2022/02/23 01:40:29;;;;;;;20.83;4.47;;;;;;;;;;4990648;28;20233;-73
2022/02/23 01:42:56;;;;;;;19.03;4.47;;;;;;;;;;4991348;28;20695;-73
2022/02/23 01:45:24;;;;;;;16.03;4.17;;;;;;;;;;4978189;28;20627;-71
2022/02/23 01:47:54;;;;;;;21.47;4.90;;;;;;;;;;4987729;28;20268;-72
2022/02/23 01:50:22;;;;;;;19.83;4.43;;;;;;;;;;4980825;28;20627;-73
2022/02/23 02:00:14;;;;;;;17.80;4.60;;;;;;;;;;4973061;28;20253;-72
2022/02/23 02:02:45;;;;;;;20.40;4.27;;;;;;;;;;4959906;28;20722;-72
2022/02/23 02:05:14;;;;;;;22.47;4.63;;;;;;;;;;4957330;28;20756;-73
2022/02/23 02:07:39;;;;;;;21.80;5.10;;;;;;;;;;4972748;28;20222;-73
2022/02/23 02:10:07;;;;;;;22.50;4.73;;;;;;;;;;4955341;28;20233;-73
2022/02/23 02:12:41;;;;;;;17.37;4.07;;;;;;;;;;4959653;28;20272;-72
2022/02/23 02:15:08;;;;;;;20.57;4.90;;;;;;;;;;4957586;28;20225;-73
2022/02/23 02:17:36;;;;;;;23.63;4.97;;;;;;;;;;4971240;28;20719;-72
2022/02/23 02:20:06;;;;;;;22.40;4.70;;;;;;;;;;4967788;28;20214;-73
2022/02/23 02:22:34;;;;;;;25.93;5.23;;;;;;;;;;5002055;28;20244;-72
2022/02/23 02:25:04;;;;;;;24.37;4.90;;;;;;;;;;4991051;28;20226;-72
2022/02/23 02:27:30;;;;;;;17.17;4.47;;;;;;;;;;4931649;28;20242;-72
2022/02/23 02:29:55;;;;;;;24.63;6.03;;;;;;;;;;4985056;28;20368;-73
2022/02/23 02:32:26;;;;;;;20.23;4.27;;;;;;;;;;4978422;28;20280;-72
2022/02/23 02:34:51;;;;;;;18.30;4.20;;;;;;;;;;4959253;28;20226;-72
2022/02/23 02:37:17;;;;;;;22.67;5.10;;;;;;;;;;4987755;28;20233;-71
2022/02/23 02:39:43;;;;;;;13.83;4.07;;;;;;;;;;4971392;28;20215;-72
2022/02/23 02:42:12;;;;;;;19.53;4.10;;;;;;;;;;4965972;28;20218;-73
2022/02/23 02:44:42;;;;;;;26.40;4.57;;;;;;;;;;4967179;28;20700;-72
2022/02/23 02:47:14;;;;;;;22.37;4.83;;;;;;;;;;4980951;28;20229;-72
2022/02/23 02:49:40;;;;;;;20.03;4.67;;;;;;;;;;4969875;28;20225;-72
2022/02/23 02:52:06;;;;;;;24.20;4.20;;;;;;;;;;4955472;28;20232;-72
2022/02/23 02:54:33;;;;;;;16.13;4.00;;;;;;;;;;4966635;28;20264;-73
2022/02/23 02:56:59;;;;;;;22.33;4.60;;;;;;;;;;4975181;28;20230;-73
2022/02/23 02:59:29;;;;;;;21.63;4.70;;;;;;;;;;4958240;28;20297;-72
2022/02/23 03:01:55;;;;;;;25.53;4.90;;;;;;;;;;4949367;28;20218;-72
2022/02/23 03:04:25;;;;;;;25.43;4.43;;;;;;;;;;4956990;28;20641;-71
2022/02/23 03:06:50;;;;;;;23.20;4.87;;;;;;;;;;4954510;28;20222;-72
2022/02/23 03:09:19;;;;;;;18.83;4.17;;;;;;;;;;4956333;28;20302;-71
2022/02/23 03:11:51;;;;;;;20.00;3.90;;;;;;;;;;4975053;28;20676;-72
2022/02/23 03:14:19;;;;;;;24.77;4.27;;;;;;;;;;4971291;28;20229;-72
2022/02/23 03:16:48;;;;;;;19.93;5.37;;;;;;;;;;4980227;28;20328;-72
2022/02/23 03:19:14;;;;;;;16.77;4.00;;;;;;;;;;4970933;28;20306;-72
2022/02/23 03:21:42;;;;;;;21.43;4.20;;;;;;;;;;4970130;28;20640;-71
2022/02/23 03:24:12;;;;;;;16.67;4.23;;;;;;;;;;4964511;28;20244;-72
2022/02/23 03:26:37;;;;;;;22.10;4.23;;;;;;;;;;4985079;28;20226;-72
2022/02/23 03:29:04;;;;;;;16.23;3.93;;;;;;;;;;4969191;28;20222;-72
2022/02/23 03:31:32;;;;;;;18.53;4.53;;;;;;;;;;4970387;28;20939;-72
2022/02/23 03:33:59;;;;;;;22.83;5.00;;;;;;;;;;4969914;28;20227;-72
2022/02/23 03:36:28;;;;;;;21.10;4.80;;;;;;;;;;4941264;28;20582;-72
2022/02/23 03:38:53;;;;;;;22.53;4.57;;;;;;;;;;4970162;28;20589;-72
2022/02/23 03:41:19;;;;;;;19.07;4.30;;;;;;;;;;5002246;28;20324;-71
2022/02/23 03:43:44;;;;;;;19.10;4.83;;;;;;;;;;4970531;28;20242;-72
2022/02/23 03:46:10;;;;;;;22.73;4.97;;;;;;;;;;4975853;28;20609;-72
2022/02/23 03:48:40;;;;;;;23.73;4.33;;;;;;;;;;4978411;28;20348;-73
2022/02/23 03:51:07;;;;;;;20.20;4.20;;;;;;;;;;4963507;28;20313;-72
2022/02/23 03:53:32;;;;;;;23.53;5.20;;;;;;;;;;4978724;28;20225;-72
2022/02/23 03:55:58;;;;;;;19.23;4.27;;;;;;;;;;5010750;28;20259;-72
2022/02/23 03:58:25;;;;;;;18.40;4.67;;;;;;;;;;4994456;28;20222;-72
2022/02/23 04:00:53;;;;;;;20.50;4.20;;;;;;;;;;4994228;28;20712;-72
2022/02/23 04:03:19;;;;;;;23.10;4.80;;;;;;;;;;4998099;28;20257;-72
2022/02/23 04:05:49;;;;;;;18.63;4.33;;;;;;;;;;4993275;28;20702;-72
2022/02/23 04:08:14;;;;;;;22.27;4.47;;;;;;;;;;4966532;28;20217;-73
2022/02/23 04:10:40;;;;;;;20.83;4.07;;;;;;;;;;4969667;28;20235;-72
2022/02/23 04:13:07;;;;;;;19.90;4.43;;;;;;;;;;5005474;28;20708;-72
2022/02/23 04:15:33;;;;;;;21.77;4.17;;;;;;;;;;4981839;28;20657;-71
2022/02/23 04:18:03;;;;;;;18.23;4.07;;;;;;;;;;4950462;28;20309;-71
2022/02/23 04:20:29;;;;;;;17.23;4.17;;;;;;;;;;4975656;28;20296;-71
2022/02/23 04:22:57;;;;;;;19.70;4.33;;;;;;;;;;4986165;28;20219;-72
2022/02/23 04:25:25;;;;;;;21.47;3.80;;;;;;;;;;4960845;28;20601;-71
2022/02/23 04:27:55;;;;;;;21.67;4.87;;;;;;;;;;4972012;28;20217;-71
2022/02/23 04:30:20;;;;;;;16.90;4.13;;;;;;;;;;4959696;28;20238;-72
2022/02/23 04:32:48;;;;;;;19.47;4.43;;;;;;;;;;4985489;28;20725;-71
2022/02/23 04:35:17;;;;;;;20.13;4.67;;;;;;;;;;5006345;28;20225;-71
2022/02/23 04:37:42;;;;;;;20.27;4.83;;;;;;;;;;4961241;28;20225;-71
2022/02/23 04:40:11;;;;;;;24.73;6.93;;;;;;;;;;4988591;28;20253;-71
2022/02/23 04:42:36;;;;;;;15.93;4.17;;;;;;;;;;4979611;28;20226;-70
2022/02/23 04:45:02;;;;;;;20.80;4.73;;;;;;;;;;4956661;28;20361;-72
2022/02/23 04:47:32;;;;;;;18.67;4.10;;;;;;;;;;4972181;28;20313;-72
2022/02/23 04:49:58;;;;;;;21.30;4.20;;;;;;;;;;4968342;28;20226;-72
2022/02/23 04:52:24;;;;;;;18.47;4.27;;;;;;;;;;4966764;28;20222;-71
2022/02/23 04:54:53;;;;;;;23.80;4.40;;;;;;;;;;4977338;28;20305;-72
2022/02/23 04:57:21;;;;;;;16.70;3.83;;;;;;;;;;4974078;28;20229;-71
2022/02/23 04:59:49;;;;;;;20.60;4.60;;;;;;;;;;4959328;28;20218;-72
2022/02/23 05:02:17;;;;;;;19.13;4.77;;;;;;;;;;4974732;28;20218;-71
2022/02/23 05:04:42;;;;;;;17.43;4.10;;;;;;;;;;4961829;28;20240;-71
2022/02/23 05:07:11;;;;;;;16.77;4.30;;;;;;;;;;4973899;28;20262;-71
2022/02/23 05:09:37;;;;;;;15.83;3.60;;;;;;;;;;4952601;28;20219;-71
2022/02/23 05:12:06;;;;;;;21.30;4.60;;;;;;;;;;4968842;28;20944;-71
2022/02/23 05:14:33;;;;;;;18.43;4.33;;;;;;;;;;4976166;28;20585;-71
2022/02/23 05:16:59;;;;;;;19.47;4.03;;;;;;;;;;4962558;28;20225;-72
2022/02/23 05:19:25;;;;;;;14.20;3.43;;;;;;;;;;4972537;28;20228;-72
2022/02/23 05:21:50;;;;;;;16.53;4.40;;;;;;;;;;4984062;28;20252;-72
2022/02/23 05:24:21;;;;;;;16.87;4.13;;;;;;;;;;4999269;28;20221;-71
2022/02/23 05:26:51;;;;;;;18.57;4.17;;;;;;;;;;4976047;28;20254;-71
2022/02/23 05:29:16;;;;;;;17.23;3.93;;;;;;;;;;4968598;28;20305;-72
2022/02/23 05:31:46;;;;;;;21.90;4.40;;;;;;;;;;4958251;28;20235;-72
2022/02/23 05:34:15;;;;;;;20.13;4.23;;;;;;;;;;4988108;28;20225;-72
2022/02/23 05:36:43;;;;;;;17.80;3.47;;;;;;;;;;4961342;28;20226;-72
2022/02/23 05:39:15;;;;;;;19.30;4.47;;;;;;;;;;5002260;28;20213;-72
2022/02/23 05:41:41;;;;;;;18.20;4.07;;;;;;;;;;4962802;28;20241;-72
2022/02/23 05:44:08;;;;;;;17.50;4.57;;;;;;;;;;4960413;28;20603;-71
2022/02/23 05:46:36;;;;;;;18.83;4.17;;;;;;;;;;4971288;28;20233;-71
2022/02/23 05:49:04;;;;;;;17.17;3.93;;;;;;;;;;4968577;28;20219;-71
2022/02/23 05:51:31;;;;;;;15.90;4.60;;;;;;;;;;4980872;28;20284;-71
2022/02/23 05:53:56;;;;;;;20.60;4.20;;;;;;;;;;4998726;28;20218;-72
2022/02/23 05:56:25;;;;;;;22.83;4.20;;;;;;;;;;4956456;28;20226;-72
2022/02/23 05:58:50;;;;;;;20.53;3.67;;;;;;;;;;4970193;28;20215;-72
2022/02/23 06:01:16;;;;;;;16.37;3.70;;;;;;;;;;4984930;28;20761;-71
2022/02/23 06:03:41;;;;;;;18.30;4.07;;;;;;;;;;4968077;28;20215;-72
2022/02/23 06:06:07;;;;;;;18.50;4.07;;;;;;;;;;4975430;28;20264;-72
2022/02/23 06:08:32;;;;;;;15.77;4.27;;;;;;;;;;4971171;28;20218;-73
2022/02/23 06:10:58;;;;;;;11.37;3.70;;;;;;;;;;4971338;28;20238;-70
2022/02/23 06:13:24;;;;;;;13.40;3.77;;;;;;;;;;4990524;28;20237;-71
2022/02/23 06:15:52;;;;;;;14.83;3.63;;;;;;;;;;4951646;28;20225;-71
2022/02/23 06:18:17;;;;;;;20.63;4.47;;;;;;;;;;4966083;28;20226;-72
2022/02/23 06:20:45;;;;;;;14.20;3.53;;;;;;;;;;4980543;28;20290;-71
2022/02/23 06:23:13;;;;;;;14.60;4.07;;;;;;;;;;4974750;28;20597;-73
2022/02/23 06:25:40;;;;;;;20.40;3.93;;;;;;;;;;4986712;28;20232;-72
2022/02/23 06:28:10;;;;;;;17.53;4.13;;;;;;;;;;4953310;28;20843;-73
2022/02/23 06:30:37;;;;;;;15.00;4.40;;;;;;;;;;4965838;28;20234;-73
2022/02/23 06:33:05;;;;;;;14.47;3.67;;;;;;;;;;4962516;28;20652;-72
2022/02/23 06:35:33;;;;;;;18.70;4.70;;;;;;;;;;4971405;28;20278;-72
2022/02/23 06:38:01;;;;;;;19.80;4.00;;;;;;;;;;4977268;28;20217;-72
2022/02/23 06:40:26;;;;;;;18.03;3.73;;;;;;;;;;4962948;28;20233;-73
2022/02/23 06:42:52;;;;;;;20.47;3.93;;;;;;;;;;4972532;28;20217;-73
2022/02/23 06:45:21;;;;;;;13.03;4.00;;;;;;;;;;4974853;28;20226;-73
2022/02/23 06:47:46;;;;;;;17.13;4.30;;;;;;;;;;4974390;28;20934;-72
2022/02/23 06:50:12;;;;;;;15.67;4.13;;;;;;;;;;4972665;28;20222;-70
2022/02/23 06:52:43;;;;;;;20.57;3.93;;;;;;;;;;4981547;28;20225;-72
2022/02/23 06:55:10;;;;;;;17.07;4.17;;;;;;;;;;4987028;28;20265;-72
2022/02/23 06:57:40;;;;;;;18.20;5.20;;;;;;;;;;5010603;28;20217;-72
2022/02/23 07:00:08;;;;;;;19.17;4.57;;;;;;;;;;5008944;28;20597;-72
2022/02/23 07:02:34;;;;;;;17.07;4.13;;;;;;;;;;5009142;28;20232;-71
2022/02/23 07:04:59;;;;;;;18.33;4.10;;;;;;;;;;4975915;28;20218;-72
2022/02/23 07:07:25;;;;;;;19.13;4.83;;;;;;;;;;4989439;28;20712;-72
2022/02/23 07:09:51;;;;;;;24.93;4.27;;;;;;;;;;4991047;28;20226;-72
2022/02/23 07:12:16;;;;;;;22.40;4.30;;;;;;;;;;4965421;28;20234;-72
2022/02/23 07:14:47;;;;;;;17.47;4.40;;;;;;;;;;4972766;28;20218;-72
2022/02/23 07:17:14;;;;;;;17.07;4.20;;;;;;;;;;4971534;28;20693;-73
2022/02/23 07:19:40;;;;;;;21.57;4.63;;;;;;;;;;4998415;28;20218;-71
2022/02/23 07:22:06;;;;;;;20.53;4.73;;;;;;;;;;4989544;28;20707;-71
2022/02/23 07:24:35;;;;;;;19.73;4.63;;;;;;;;;;4974535;28;20222;-72
2022/02/23 07:27:09;;;;;;;18.67;4.13;;;;;;;;;;4951056;28;20248;-72
2022/02/23 07:29:39;;;;;;;19.43;4.73;;;;;;;;;;4955199;28;20221;-72
2022/02/23 07:32:05;;;;;;;20.30;4.87;;;;;;;;;;4970768;28;20230;-72
2022/02/23 07:34:37;;;;;;;19.53;4.33;;;;;;;;;;4958368;28;20238;-72
2022/02/23 07:37:05;;;;;;;16.37;3.90;;;;;;;;;;4990366;28;20220;-72
2022/02/23 07:39:31;;;;;;;17.23;4.10;;;;;;;;;;4993212;28;20225;-72
2022/02/23 07:41:56;;;;;;;17.77;4.67;;;;;;;;;;4971138;28;20225;-71
2022/02/23 07:44:22;;;;;;;16.57;4.30;;;;;;;;;;4984923;28;20228;-72
2022/02/23 07:46:48;;;;;;;18.00;4.33;;;;;;;;;;4979549;28;20799;-72
2022/02/23 07:49:16;;;;;;;21.97;4.77;;;;;;;;;;4972385;28;20308;-71
2022/02/23 07:51:44;;;;;;;20.73;4.60;;;;;;;;;;4964982;28;20248;-71
2022/02/23 07:54:10;;;;;;;19.77;4.63;;;;;;;;;;4993798;28;20290;-73
2022/02/23 07:56:38;;;;;;;15.13;3.70;;;;;;;;;;4985512;28;20694;-71
2022/02/23 07:59:06;;;;;;;16.97;4.40;;;;;;;;;;4971104;28;20249;-73
2022/02/23 08:01:33;;;;;;;16.87;4.50;;;;;;;;;;4997042;28;20272;-72
2022/02/23 08:03:59;;;;;;;23.43;4.40;;;;;;;;;;4974821;28;20218;-72
2022/02/23 08:06:29;;;;;;;21.60;4.73;;;;;;;;;;4995052;28;20218;-72
2022/02/23 08:08:57;;;;;;;19.80;4.80;;;;;;;;;;4976876;28;20222;-72
2022/02/23 08:11:29;;;;;;;22.50;4.80;;;;;;;;;;4962757;28;20296;-72
2022/02/23 08:14:03;;;;;;;21.03;5.00;;;;;;;;;;4979111;28;20231;-72
2022/02/23 08:19:31;;;;;;;19.03;4.73;;;;;;;;;;4992287;28;20227;-72
2022/02/23 08:22:12;;;;;;;18.30;4.90;;;;;;;;;;4973973;28;20217;-72
2022/02/23 08:24:44;;;;;;;16.87;4.83;;;;;;;;;;4973635;28;20848;-71
2022/02/23 08:27:18;;;;;;;19.60;4.97;;;;;;;;;;4973660;28;20214;-74
2022/02/23 08:29:44;;;;;;;22.90;5.47;;;;;;;;;;4973807;28;20229;-72
2022/02/23 08:32:15;;;;;;;24.93;5.27;;;;;;;;;;4985674;28;20221;-72
2022/02/23 08:34:44;;;;;;;22.87;5.57;;;;;;;;;;4976452;28;20214;-73
2022/02/23 08:37:10;;;;;;;19.87;4.87;;;;;;;;;;4959227;28;20276;-72
2022/02/23 08:39:38;;;;;;;19.03;4.60;;;;;;;;;;4975954;28;20680;-73
2022/02/23 08:42:07;;;;;;;17.97;5.17;;;;;;;;;;4982585;28;20213;-72
2022/02/23 08:44:35;;;;;;;20.50;5.30;;;;;;;;;;4991117;28;20332;-73
2022/02/23 08:47:03;;;;;;;19.97;5.10;;;;;;;;;;4977373;28;20233;-72
2022/02/23 08:49:33;;;;;;;20.17;5.10;;;;;;;;;;4989248;28;20300;-72
2022/02/23 08:52:01;;;;;;;20.37;5.00;;;;;;;;;;4989865;28;20251;-72
2022/02/23 08:54:26;;;;;;;18.70;5.27;;;;;;;;;;4956143;28;20640;-73
2022/02/23 08:56:52;;;;;;;17.53;4.47;;;;;;;;;;4962343;28;20304;-73
2022/02/23 08:59:17;;;;;;;14.20;4.67;;;;;;;;;;4991200;28;20221;-73
2022/02/23 09:01:45;;;;;;;14.93;3.87;;;;;;;;;;4997558;28;20669;-73
2022/02/23 09:04:13;;;;;;;15.73;4.33;;;;;;;;;;4988374;28;20256;-73
2022/02/23 09:06:41;;;;;;;17.33;4.50;;;;;;;;;;4991351;28;20218;-73
2022/02/23 09:09:13;;;;;;;16.17;4.43;;;;;;;;;;4971582;28;20214;-71
2022/02/23 09:11:39;;;;;;;16.00;4.20;;;;;;;;;;4991831;28;20760;-73
2022/02/23 09:14:07;;;;;;;16.60;4.23;;;;;;;;;;4975367;28;20229;-73
2022/02/23 09:16:35;;;;;;;15.93;4.50;;;;;;;;;;4991905;28;20593;-73
2022/02/23 09:19:00;;;;;;;13.67;4.20;;;;;;;;;;4974719;28;20213;-73
2022/02/23 09:21:26;;;;;;;18.63;4.97;;;;;;;;;;4989569;28;21448;-73
2022/02/23 09:23:54;;;;;;;13.67;4.20;;;;;;;;;;4975152;28;20232;-74
2022/02/23 09:26:22;;;;;;;14.80;4.53;;;;;;;;;;4992584;28;20233;-72
2022/02/23 09:28:48;;;;;;;18.87;4.23;;;;;;;;;;4987931;28;20787;-73
2022/02/23 09:31:20;;;;;;;15.53;4.03;;;;;;;;;;4971849;28;20233;-72
2022/02/23 09:33:48;;;;;;;16.33;4.00;;;;;;;;;;4972045;28;20226;-73
2022/02/23 09:36:14;;;;;;;20.17;4.70;;;;;;;;;;4971461;28;20225;-72
2022/02/23 09:38:43;;;;;;;14.73;3.47;;;;;;;;;;4989599;28;20217;-71
2022/02/23 09:41:10;;;;;;;15.20;3.77;;;;;;;;;;4991927;28;20221;-73
2022/02/23 09:43:38;;;;;;;13.37;3.57;;;;;;;;;;4987976;28;20222;-72
2022/02/23 09:46:08;;;;;;;16.53;4.27;;;;;;;;;;4981308;28;20222;-71
2022/02/23 09:48:35;;;;;;;16.83;4.27;;;;;;;;;;4990974;28;20229;-72
2022/02/23 09:51:04;;;;;;;16.70;3.70;;;;;;;;;;4973985;28;20214;-72
2022/02/23 09:53:31;;;;;;;11.80;3.30;;;;;;;;;;5004021;28;20217;-72
2022/02/23 09:56:00;;;;;;;14.10;3.70;;;;;;;;;;5000507;28;20213;-73
2022/02/23 09:58:32;;;;;;;17.90;3.70;;;;;;;;;;4990060;28;20245;-72
2022/02/23 10:01:02;;;;;;;15.23;3.70;;;;;;;;;;4995730;28;20719;-72
2022/02/23 10:03:29;;;;;;;13.27;3.70;;;;;;;;;;4991278;28;20217;-72
2022/02/23 10:05:55;;;;;;;13.40;3.33;;;;;;;;;;4987798;28;20300;-72
2022/02/23 10:08:21;;;;;;;12.47;4.00;;;;;;;;;;4985847;28;20305;-73
2022/02/23 10:10:50;;;;;;;13.60;3.63;;;;;;;;;;4970353;28;20233;-72
2022/02/23 10:13:17;;;;;;;16.47;3.60;;;;;;;;;;4958370;28;20241;-72
2022/02/23 10:15:46;;;;;;;14.47;3.97;;;;;;;;;;4993335;28;20249;-73
2022/02/23 10:18:17;;;;;;;12.10;3.93;;;;;;;;;;4974943;28;21010;-72
2022/02/23 10:20:44;;;;;;;15.07;3.17;;;;;;;;;;4991558;28;20214;-73
2022/02/23 10:23:23;;;;;;;8.63;2.87;;;;;;;;;;4987225;28;20228;-72
2022/02/23 10:25:58;;;;;;;9.40;2.80;;;;;;;;;;4981626;28;20233;-72
2022/02/23 10:28:30;;;;;;;10.47;3.07;;;;;;;;;;4971766;28;20225;-74
2022/02/23 10:31:02;;;;;;;10.10;2.83;;;;;;;;;;4969199;28;20309;-73
2022/02/23 10:33:39;;;;;;;12.47;2.93;;;;;;;;;;4974938;28;20226;-73
2022/02/23 10:36:12;;;;;;;11.50;3.07;;;;;;;;;;4992700;28;20228;-73
2022/02/23 10:38:50;;;;;;;9.00;3.20;;;;;;;;;;4962940;28;20284;-72
2022/02/23 10:41:32;;;;;;;10.93;2.73;;;;;;;;;;4946023;28;20222;-72
2022/02/23 10:44:00;;;;;;;11.03;3.03;;;;;;;;;;4971234;28;20237;-73
2022/02/23 10:46:28;;;;;;;11.17;2.83;;;;;;;;;;4995679;28;20214;-72
2022/02/23 10:48:59;;;;;;;10.97;2.87;;;;;;;;;;4973403;28;20241;-71
2022/02/23 10:51:32;;;;;;;9.80;3.07;;;;;;;;;;4987914;28;20225;-72
2022/02/23 10:54:04;;;;;;;10.97;2.90;;;;;;;;;;5006080;28;20221;-71
2022/02/23 10:56:33;;;;;;;9.43;2.77;;;;;;;;;;4990058;28;20221;-71
2022/02/23 10:59:09;;;;;;;10.33;2.77;;;;;;;;;;4990037;28;20607;-72
2022/02/23 11:01:38;;;;;;;12.40;2.80;;;;;;;;;;5000345;28;20244;-73
2022/02/23 11:04:04;;;;;;;12.47;3.13;;;;;;;;;;4957861;28;20227;-72
2022/02/23 11:06:29;;;;;;;14.73;3.13;;;;;;;;;;4993401;28;20310;-71
2022/02/23 11:08:55;;;;;;;9.97;2.83;;;;;;;;;;4994350;28;20225;-72
2022/02/23 11:11:22;;;;;;;10.60;2.97;;;;;;;;;;4994038;28;20229;-72
2022/02/23 11:13:48;;;;;;;9.90;2.83;;;;;;;;;;4994395;28;20328;-70
2022/02/23 11:16:14;;;;;;;11.57;2.40;;;;;;;;;;4991409;28;20301;-71
2022/02/23 11:18:47;;;;;;;14.10;3.30;;;;;;;;;;4992120;28;20224;-71
2022/02/23 11:21:18;;;;;;;6.80;2.23;;;;;;;;;;4999111;28;20213;-72
2022/02/23 11:23:55;;;;;;;10.50;2.60;;;;;;;;;;5003587;28;20276;-71
2022/02/23 11:26:21;;;;;;;8.27;2.23;;;;;;;;;;4983423;28;20221;-71
2022/02/23 11:28:53;;;;;;;11.60;2.93;;;;;;;;;;4998606;28;20228;-71
2022/02/23 11:31:21;;;;;;;11.20;2.60;;;;;;;;;;4996710;28;20256;-72
2022/02/23 11:33:46;;;;;;;7.63;2.70;;;;;;;;;;4979892;28;20225;-72
2022/02/23 11:36:19;;;;;;;9.80;2.87;;;;;;;;;;4994202;28;20348;-71
2022/02/23 11:38:48;;;;;;;8.10;2.63;;;;;;;;;;4986553;28;20228;-71
2022/02/23 11:41:25;;;;;;;8.03;2.70;;;;;;;;;;4990039;28;20271;-71
2022/02/23 11:44:10;;;;;;;9.20;2.43;;;;;;;;;;4991883;28;20647;-71
2022/02/23 11:47:13;;;;;;;5.07;1.93;;;;;;;;;;4989655;28;20304;-71
2022/02/23 11:49:56;;;;;;;9.67;2.30;;;;;;;;;;4976856;28;20729;-71
2022/02/23 11:52:59;;;;;;;9.60;2.43;;;;;;;;;;4976672;28;20247;-72
2022/02/23 11:56:20;;;;;;;7.40;1.90;;;;;;;;;;4987889;28;20799;-72
2022/02/23 11:59:42;;;;;;;8.60;2.40;;;;;;;;;;4990174;28;20275;-73
2022/02/23 12:02:12;;;;;;;7.50;1.90;;;;;;;;;;4974630;28;20221;-72
2022/02/23 12:04:49;;;;;;;8.97;2.07;;;;;;;;;;4977558;28;20221;-73
2022/02/23 12:07:16;;;;;;;8.97;2.40;;;;;;;;;;4991000;28;20218;-73
2022/02/23 12:09:56;;;;;;;6.33;2.20;;;;;;;;;;4991948;28;20525;-72
2022/02/23 12:12:35;;;;;;;5.27;1.97;;;;;;;;;;4991135;28;20256;-73
2022/02/23 12:15:03;;;;;;;6.17;2.27;;;;;;;;;;4992444;28;20236;-73
2022/02/23 12:17:59;;;;;;;5.70;2.60;;;;;;;;;;4983252;28;20661;-72
2022/02/23 12:20:41;;;;;;;5.30;1.47;;;;;;;;;;4991339;28;20244;-72
2022/02/23 12:23:11;;;;;;;5.43;1.73;;;;;;;;;;4992788;28;20217;-78
2022/02/23 12:25:53;;;;;;;8.00;1.93;;;;;;;;;;4976548;28;20235;-71
2022/02/23 12:28:40;;;;;;;8.10;2.03;;;;;;;;;;4975345;28;20241;-72
2022/02/23 12:31:14;;;;;;;4.60;2.00;;;;;;;;;;4953046;28;20253;-72
2022/02/23 12:33:41;;;;;;;8.77;2.07;;;;;;;;;;4976468;28;20300;-72
2022/02/23 12:36:10;;;;;;;7.70;1.80;;;;;;;;;;4989049;28;20210;-70
2022/02/23 12:38:41;;;;;;;8.57;2.23;;;;;;;;;;4984056;28;20217;-72
2022/02/23 12:41:10;;;;;;;6.97;2.20;;;;;;;;;;4988005;28;20218;-72
2022/02/23 12:43:40;;;;;;;7.10;2.00;;;;;;;;;;4959925;28;20623;-71
2022/02/23 12:46:06;;;;;;;8.20;2.03;;;;;;;;;;4971253;28;20206;-72
2022/02/23 12:48:34;;;;;;;11.50;2.33;;;;;;;;;;4996325;28;20600;-72
2022/02/23 12:51:03;;;;;;;5.43;2.17;;;;;;;;;;4985011;28;20236;-72
2022/02/23 12:53:42;;;;;;;4.63;1.80;;;;;;;;;;4972802;28;20222;-72
2022/02/23 12:56:25;;;;;;;5.87;1.80;;;;;;;;;;4979364;28;20276;-72
2022/02/23 12:58:54;;;;;;;6.57;2.10;;;;;;;;;;4987883;28;20226;-71
2022/02/23 13:01:20;;;;;;;7.17;1.97;;;;;;;;;;4958207;28;20246;-71
2022/02/23 13:03:46;;;;;;;4.57;1.70;;;;;;;;;;4976814;28;20225;-71
2022/02/23 13:06:12;;;;;;;4.63;1.70;;;;;;;;;;4990712;28;20225;-71
2022/02/23 13:08:39;;;;;;;5.27;1.60;;;;;;;;;;4978081;28;20692;-72
2022/02/23 13:11:08;;;;;;;6.47;2.43;;;;;;;;;;4971749;28;20736;-72
2022/02/23 13:13:40;;;;;;;5.40;2.13;;;;;;;;;;4963951;28;20215;-72
2022/02/23 13:16:08;;;;;;;5.47;2.10;;;;;;;;;;4971810;28;20598;-70
2022/02/23 13:18:45;;;;;;;5.83;2.00;;;;;;;;;;4973385;28;20230;-72
2022/02/23 13:21:12;;;;;;;6.80;1.63;;;;;;;;;;4959879;28;20221;-71
2022/02/23 13:23:51;;;;;;;5.20;1.83;;;;;;;;;;4972698;28;20936;-70
2022/02/23 13:26:17;;;;;;;7.13;1.97;;;;;;;;;;4978870;28;20361;-72
2022/02/23 13:28:58;;;;;;;7.37;2.17;;;;;;;;;;4975467;28;20907;-71
2022/02/23 13:31:38;;;;;;;7.60;1.93;;;;;;;;;;4987001;28;20236;-72
2022/02/23 13:34:25;;;;;;;7.43;2.10;;;;;;;;;;4956563;28;20689;-69
2022/02/23 13:36:55;;;;;;;6.90;2.30;;;;;;;;;;4968783;28;20309;-71
2022/02/23 13:39:27;;;;;;;5.10;1.67;;;;;;;;;;4956415;28;20226;-72
2022/02/23 13:41:59;;;;;;;4.77;1.70;;;;;;;;;;4971789;28;20233;-72
2022/02/23 13:44:26;;;;;;;6.60;2.10;;;;;;;;;;4970301;28;20229;-73
2022/02/23 13:46:56;;;;;;;5.33;1.97;;;;;;;;;;4969219;28;20218;-72
2022/02/23 13:53:10;;;;;;;5.00;1.50;;;;;;;;;;4975788;28;20309;-71
2022/02/23 13:55:42;;;;;;;8.07;2.70;;;;;;;;;;4987792;28;20221;-72
2022/02/23 13:58:18;;;;;;;4.33;1.63;;;;;;;;;;4955773;28;20214;-72
2022/02/23 14:00:51;;;;;;;5.43;2.17;;;;;;;;;;4965424;28;20697;-74
2022/02/23 14:03:18;;;;;;;6.40;2.07;;;;;;;;;;4972154;28;20228;-70
2022/02/23 14:05:52;;;;;;;6.07;1.87;;;;;;;;;;4954422;28;20245;-71
2022/02/23 14:08:18;;;;;;;5.47;1.60;;;;;;;;;;4997133;28;20226;-71
2022/02/23 14:10:44;;;;;;;7.60;2.27;;;;;;;;;;4984440;28;20226;-70
2022/02/23 14:13:14;;;;;;;8.27;2.30;;;;;;;;;;4969324;28;20214;-71
2022/02/23 14:15:44;;;;;;;3.40;1.40;;;;;;;;;;4983162;28;20670;-71
2022/02/23 14:18:28;;;;;;;7.07;2.07;;;;;;;;;;4965456;28;20700;-72
2022/02/23 14:20:57;;;;;;;4.37;1.80;;;;;;;;;;4983401;28;20221;-70
2022/02/23 14:23:26;;;;;;;3.83;1.30;;;;;;;;;;4970741;28;20329;-72
2022/02/23 14:25:59;;;;;;;3.30;1.30;;;;;;;;;;4951532;28;20694;-71
2022/02/23 14:28:44;;;;;;;4.17;1.47;;;;;;;;;;4974749;28;20834;-71
2022/02/23 14:31:29;;;;;;;5.40;1.47;;;;;;;;;;4955384;28;20244;-72
2022/02/23 14:34:19;;;;;;;3.83;1.17;;;;;;;;;;4968331;28;20291;-72
2022/02/23 14:36:47;;;;;;;3.60;1.60;;;;;;;;;;4968810;28;20222;-72
2022/02/23 14:39:13;;;;;;;3.57;1.20;;;;;;;;;;4950979;28;20320;-72
2022/02/23 14:41:38;;;;;;;4.50;1.57;;;;;;;;;;4951696;28;20306;-72
2022/02/23 14:44:08;;;;;;;4.60;1.50;;;;;;;;;;4960825;28;20213;-72
2022/02/23 14:46:35;;;;;;;6.13;1.80;;;;;;;;;;4983348;28;20597;-71
2022/02/23 14:49:05;;;;;;;2.93;1.53;;;;;;;;;;4980857;28;20252;-72
2022/02/23 14:51:31;;;;;;;3.63;1.70;;;;;;;;;;4968420;28;20230;-72
2022/02/23 14:53:57;;;;;;;4.03;1.43;;;;;;;;;;4968730;28;20878;-71
2022/02/23 14:56:23;;;;;;;4.70;1.60;;;;;;;;;;4995587;28;20590;-72
2022/02/23 14:58:48;;;;;;;6.47;1.70;;;;;;;;;;4953995;28;20230;-72
2022/02/23 15:01:14;;;;;;;4.67;1.87;;;;;;;;;;4987563;28;20236;-71
2022/02/23 15:03:44;;;;;;;6.63;1.87;;;;;;;;;;4976813;28;20229;-72
2022/02/23 15:06:11;;;;;;;6.13;1.67;;;;;;;;;;4970316;28;20291;-73
2022/02/23 15:08:38;;;;;;;3.97;1.70;;;;;;;;;;4977449;28;20222;-73
2022/02/23 15:11:06;;;;;;;5.30;1.60;;;;;;;;;;4982420;28;20236;-72
2022/02/23 15:13:34;;;;;;;5.07;2.37;;;;;;;;;;4970275;28;20608;-73
2022/02/23 15:16:03;;;;;;;3.87;1.60;;;;;;;;;;4962477;28;20227;-72
2022/02/23 15:18:28;;;;;;;4.97;1.80;;;;;;;;;;4967912;28;20215;-71